Overcast Current Weather (METAR) For Manchester Airport

All times on the weather descriptions are local

Observed at 03:50 - (32 mins ago)

Overcast

11°C

Overcast
Clouds: Overcast at 1,700ft
Wind: 230° at 15 knots
Visibility: Greater than 10km
QNH: 1011
Dew Point: 8°C
Runway in Use: Runways 23L/R

Sunrise Today: 08:21
Sunset Today: 15:55

Forecast Weather (TAF) For Manchester Airport

Issued at 00:00 - (7 days 19 hrs ago)


Runway in Use: Likely Runways 23L/R

Forecast valid until 00:00 on Wednesday

METAR/TAF RAW METAR / TAF

EGCC 230350Z AUTO 23015KT 9999 OVC017 11/08 Q1011

Weather Widget

Put weather from any of our airports on your website with our weather widget.

Find Another Search

Airport Search


Please Wait Please Wait - Loading
Close
Close

Login

Username:

Password:

Remember Me:

Remember me on this computer

Forgotten your password? Get a reset password sent to your registered e-mail address

Close

User Private Message

Subject:

Message: